sensor_id;sensor_type;location;lat;lon;timestamp;temperature;humidity
44190;DHT22;29856;52.144;5.430;2023-05-10T00:01:25;15.00;99.90
44190;DHT22;29856;52.144;5.430;2023-05-10T00:03:50;15.00;99.90
44190;DHT22;29856;52.144;5.430;2023-05-10T00:06:16;14.90;99.90
44190;DHT22;29856;52.144;5.430;2023-05-10T00:08:41;15.00;99.90
44190;DHT22;29856;52.144;5.430;2023-05-10T00:11:07;15.00;99.90
44190;DHT22;29856;52.144;5.430;2023-05-10T00:13:32;15.00;99.90
44190;DHT22;29856;52.144;5.430;2023-05-10T00:15:58;14.90;99.90
44190;DHT22;29856;52.144;5.430;2023-05-10T00:18:23;14.90;99.90
44190;DHT22;29856;52.144;5.430;2023-05-10T00:20:49;15.00;99.90
44190;DHT22;29856;52.144;5.430;2023-05-10T00:23:14;14.90;99.90
44190;DHT22;29856;52.144;5.430;2023-05-10T00:25:40;14.90;99.90
44190;DHT22;29856;52.144;5.430;2023-05-10T00:28:05;14.80;99.90
44190;DHT22;29856;52.144;5.430;2023-05-10T00:30:31;14.90;99.90
44190;DHT22;29856;52.144;5.430;2023-05-10T00:32:56;14.90;99.90
44190;DHT22;29856;52.144;5.430;2023-05-10T00:35:22;15.00;99.90
44190;DHT22;29856;52.144;5.430;2023-05-10T00:37:47;14.90;99.90
44190;DHT22;29856;52.144;5.430;2023-05-10T00:40:13;15.00;99.90
44190;DHT22;29856;52.144;5.430;2023-05-10T00:42:39;14.90;99.90
44190;DHT22;29856;52.144;5.430;2023-05-10T00:45:05;14.90;99.90
44190;DHT22;29856;52.144;5.430;2023-05-10T00:47:31;14.90;99.90
44190;DHT22;29856;52.144;5.430;2023-05-10T00:49:57;14.90;99.90
44190;DHT22;29856;52.144;5.430;2023-05-10T00:52:23;14.80;99.90
44190;DHT22;29856;52.144;5.430;2023-05-10T00:54:49;14.80;99.90
44190;DHT22;29856;52.144;5.430;2023-05-10T00:57:15;14.80;99.90
44190;DHT22;29856;52.144;5.430;2023-05-10T00:59:40;14.80;99.90
44190;DHT22;29856;52.144;5.430;2023-05-10T01:02:06;14.80;99.90
44190;DHT22;29856;52.144;5.430;2023-05-10T01:04:33;14.80;99.90
44190;DHT22;29856;52.144;5.430;2023-05-10T01:06:58;14.80;99.90
44190;DHT22;29856;52.144;5.430;2023-05-10T01:09:24;14.80;99.90
44190;DHT22;29856;52.144;5.430;2023-05-10T01:11:50;14.80;99.90
44190;DHT22;29856;52.144;5.430;2023-05-10T01:14:17;14.80;99.90
44190;DHT22;29856;52.144;5.430;2023-05-10T01:16:44;14.80;99.90
44190;DHT22;29856;52.144;5.430;2023-05-10T01:19:22;14.70;99.90
44190;DHT22;29856;52.144;5.430;2023-05-10T01:22:25;14.70;99.90
44190;DHT22;29856;52.144;5.430;2023-05-10T01:31:30;14.70;99.90
44190;DHT22;29856;52.144;5.430;2023-05-10T01:36:23;14.60;99.90
44190;DHT22;29856;52.144;5.430;2023-05-10T01:39:02;14.70;99.90
44190;DHT22;29856;52.144;5.430;2023-05-10T01:41:43;14.60;99.90
44190;DHT22;29856;52.144;5.430;2023-05-10T01:47:37;14.60;99.90
44190;DHT22;29856;52.144;5.430;2023-05-10T01:50:06;14.60;99.90
44190;DHT22;29856;52.144;5.430;2023-05-10T01:52:41;14.50;99.90
44190;DHT22;29856;52.144;5.430;2023-05-10T01:55:14;14.50;99.90
44190;DHT22;29856;52.144;5.430;2023-05-10T01:57:43;14.40;99.90
44190;DHT22;29856;52.144;5.430;2023-05-10T02:00:10;14.40;99.90
44190;DHT22;29856;52.144;5.430;2023-05-10T02:02:38;14.50;99.90
44190;DHT22;29856;52.144;5.430;2023-05-10T02:05:06;14.40;99.90
44190;DHT22;29856;52.144;5.430;2023-05-10T02:07:35;14.50;99.90
44190;DHT22;29856;52.144;5.430;2023-05-10T02:10:02;14.50;99.90
44190;DHT22;29856;52.144;5.430;2023-05-10T02:12:30;14.50;99.90
44190;DHT22;29856;52.144;5.430;2023-05-10T02:14:57;14.50;99.90
44190;DHT22;29856;52.144;5.430;2023-05-10T02:17:25;14.50;99.90
44190;DHT22;29856;52.144;5.430;2023-05-10T02:19:51;14.50;99.90
44190;DHT22;29856;52.144;5.430;2023-05-10T02:22:19;14.50;99.90
44190;DHT22;29856;52.144;5.430;2023-05-10T02:24:45;14.50;99.90
44190;DHT22;29856;52.144;5.430;2023-05-10T02:27:12;14.60;99.90
44190;DHT22;29856;52.144;5.430;2023-05-10T02:29:39;14.60;99.90
44190;DHT22;29856;52.144;5.430;2023-05-10T02:32:05;14.50;99.90
44190;DHT22;29856;52.144;5.430;2023-05-10T02:34:31;14.50;99.90
44190;DHT22;29856;52.144;5.430;2023-05-10T02:36:58;14.50;99.90
44190;DHT22;29856;52.144;5.430;2023-05-10T02:39:26;14.40;99.90
44190;DHT22;29856;52.144;5.430;2023-05-10T02:41:53;14.40;99.90
44190;DHT22;29856;52.144;5.430;2023-05-10T02:44:19;14.40;99.90
44190;DHT22;29856;52.144;5.430;2023-05-10T02:46:45;14.30;99.90
44190;DHT22;29856;52.144;5.430;2023-05-10T02:49:11;14.30;99.90
44190;DHT22;29856;52.144;5.430;2023-05-10T02:51:41;14.20;99.90
44190;DHT22;29856;52.144;5.430;2023-05-10T02:54:11;14.20;99.90
44190;DHT22;29856;52.144;5.430;2023-05-10T02:56:42;14.20;99.90
44190;DHT22;29856;52.144;5.430;2023-05-10T02:59:09;14.20;99.90
44190;DHT22;29856;52.144;5.430;2023-05-10T03:01:35;14.20;99.90
44190;DHT22;29856;52.144;5.430;2023-05-10T03:04:00;14.10;99.90
44190;DHT22;29856;52.144;5.430;2023-05-10T03:06:26;14.00;99.90
44190;DHT22;29856;52.144;5.430;2023-05-10T03:08:51;14.00;99.90
44190;DHT22;29856;52.144;5.430;2023-05-10T03:16:46;13.90;99.90
44190;DHT22;29856;52.144;5.430;2023-05-10T03:19:21;13.90;99.90
44190;DHT22;29856;52.144;5.430;2023-05-10T03:21:50;13.70;99.90
44190;DHT22;29856;52.144;5.430;2023-05-10T03:24:16;13.80;99.90
44190;DHT22;29856;52.144;5.430;2023-05-10T03:26:45;13.70;99.90
44190;DHT22;29856;52.144;5.430;2023-05-10T03:29:12;13.70;99.90
44190;DHT22;29856;52.144;5.430;2023-05-10T03:31:39;13.60;99.90
44190;DHT22;29856;52.144;5.430;2023-05-10T03:34:04;13.60;99.90
44190;DHT22;29856;52.144;5.430;2023-05-10T03:36:30;13.60;99.90
44190;DHT22;29856;52.144;5.430;2023-05-10T03:38:55;13.70;99.90
44190;DHT22;29856;52.144;5.430;2023-05-10T03:41:21;13.60;99.90
44190;DHT22;29856;52.144;5.430;2023-05-10T03:43:46;13.60;99.90
44190;DHT22;29856;52.144;5.430;2023-05-10T03:46:12;13.70;99.90
44190;DHT22;29856;52.144;5.430;2023-05-10T03:48:37;13.70;99.90
44190;DHT22;29856;52.144;5.430;2023-05-10T03:51:03;13.70;99.90
44190;DHT22;29856;52.144;5.430;2023-05-10T03:53:28;13.70;99.90
44190;DHT22;29856;52.144;5.430;2023-05-10T03:55:54;13.80;99.90
44190;DHT22;29856;52.144;5.430;2023-05-10T03:58:19;13.80;99.90
44190;DHT22;29856;52.144;5.430;2023-05-10T04:00:45;13.80;99.90
44190;DHT22;29856;52.144;5.430;2023-05-10T04:03:11;13.80;99.90
44190;DHT22;29856;52.144;5.430;2023-05-10T04:05:37;13.80;99.90
44190;DHT22;29856;52.144;5.430;2023-05-10T04:08:03;13.80;99.90
44190;DHT22;29856;52.144;5.430;2023-05-10T04:10:29;13.90;99.90
44190;DHT22;29856;52.144;5.430;2023-05-10T04:12:54;13.80;99.90
44190;DHT22;29856;52.144;5.430;2023-05-10T04:15:20;13.80;99.90
44190;DHT22;29856;52.144;5.430;2023-05-10T04:17:45;13.90;99.90
44190;DHT22;29856;52.144;5.430;2023-05-10T04:20:11;14.00;99.90
44190;DHT22;29856;52.144;5.430;2023-05-10T04:22:37;13.90;99.90
44190;DHT22;29856;52.144;5.430;2023-05-10T04:25:03;14.00;99.90
44190;DHT22;29856;52.144;5.430;2023-05-10T04:27:28;14.00;99.90
44190;DHT22;29856;52.144;5.430;2023-05-10T04:29:54;13.90;99.90
44190;DHT22;29856;52.144;5.430;2023-05-10T04:32:19;13.90;99.90
44190;DHT22;29856;52.144;5.430;2023-05-10T04:34:45;13.90;99.90
44190;DHT22;29856;52.144;5.430;2023-05-10T04:37:10;13.90;99.90
44190;DHT22;29856;52.144;5.430;2023-05-10T04:39:35;13.90;99.90
44190;DHT22;29856;52.144;5.430;2023-05-10T04:42:02;13.90;99.90
44190;DHT22;29856;52.144;5.430;2023-05-10T04:44:28;13.90;99.90
44190;DHT22;29856;52.144;5.430;2023-05-10T04:46:54;13.90;99.90
44190;DHT22;29856;52.144;5.430;2023-05-10T04:49:19;13.90;99.90
44190;DHT22;29856;52.144;5.430;2023-05-10T04:51:44;13.90;99.90
44190;DHT22;29856;52.144;5.430;2023-05-10T04:54:10;14.00;99.90
44190;DHT22;29856;52.144;5.430;2023-05-10T04:56:35;14.00;99.90
44190;DHT22;29856;52.144;5.430;2023-05-10T04:59:01;13.90;99.90
44190;DHT22;29856;52.144;5.430;2023-05-10T05:01:26;14.00;99.90
44190;DHT22;29856;52.144;5.430;2023-05-10T05:03:52;14.00;99.90
44190;DHT22;29856;52.144;5.430;2023-05-10T05:06:17;13.90;99.90
44190;DHT22;29856;52.144;5.430;2023-05-10T05:08:43;14.00;99.90
44190;DHT22;29856;52.144;5.430;2023-05-10T05:11:08;14.00;99.90
44190;DHT22;29856;52.144;5.430;2023-05-10T05:13:34;14.00;99.90
44190;DHT22;29856;52.144;5.430;2023-05-10T05:16:03;14.00;99.90
44190;DHT22;29856;52.144;5.430;2023-05-10T05:18:29;14.00;99.90
44190;DHT22;29856;52.144;5.430;2023-05-10T05:20:54;14.00;99.90
44190;DHT22;29856;52.144;5.430;2023-05-10T05:23:20;14.00;99.90
44190;DHT22;29856;52.144;5.430;2023-05-10T05:25:45;14.00;99.90
44190;DHT22;29856;52.144;5.430;2023-05-10T05:28:10;13.90;99.90
44190;DHT22;29856;52.144;5.430;2023-05-10T05:30:36;13.80;99.90
44190;DHT22;29856;52.144;5.430;2023-05-10T05:33:01;13.80;99.90
44190;DHT22;29856;52.144;5.430;2023-05-10T05:35:27;13.80;99.90
44190;DHT22;29856;52.144;5.430;2023-05-10T05:37:52;13.80;99.90
44190;DHT22;29856;52.144;5.430;2023-05-10T05:40:18;13.90;99.90
44190;DHT22;29856;52.144;5.430;2023-05-10T05:42:43;13.90;99.90
44190;DHT22;29856;52.144;5.430;2023-05-10T05:45:09;13.80;99.90
44190;DHT22;29856;52.144;5.430;2023-05-10T05:47:35;13.80;99.90
44190;DHT22;29856;52.144;5.430;2023-05-10T05:50:00;13.80;99.90
44190;DHT22;29856;52.144;5.430;2023-05-10T05:52:25;13.90;99.90
44190;DHT22;29856;52.144;5.430;2023-05-10T05:54:51;13.80;99.90
44190;DHT22;29856;52.144;5.430;2023-05-10T05:57:16;13.80;99.90
44190;DHT22;29856;52.144;5.430;2023-05-10T05:59:42;13.80;99.90
44190;DHT22;29856;52.144;5.430;2023-05-10T06:02:08;13.80;99.90
44190;DHT22;29856;52.144;5.430;2023-05-10T06:04:34;13.70;99.90
44190;DHT22;29856;52.144;5.430;2023-05-10T06:06:59;13.70;99.90
44190;DHT22;29856;52.144;5.430;2023-05-10T06:09:25;13.60;99.90
44190;DHT22;29856;52.144;5.430;2023-05-10T06:11:50;13.60;99.90
44190;DHT22;29856;52.144;5.430;2023-05-10T06:14:15;13.60;99.90
44190;DHT22;29856;52.144;5.430;2023-05-10T06:16:41;13.60;99.90
44190;DHT22;29856;52.144;5.430;2023-05-10T06:19:06;13.60;99.90
44190;DHT22;29856;52.144;5.430;2023-05-10T06:21:32;13.60;99.90
44190;DHT22;29856;52.144;5.430;2023-05-10T06:23:57;13.60;99.90
44190;DHT22;29856;52.144;5.430;2023-05-10T06:26:23;13.50;99.90
44190;DHT22;29856;52.144;5.430;2023-05-10T06:28:48;13.50;99.90
44190;DHT22;29856;52.144;5.430;2023-05-10T06:31:14;13.60;99.90
44190;DHT22;29856;52.144;5.430;2023-05-10T06:33:39;13.50;99.90
44190;DHT22;29856;52.144;5.430;2023-05-10T06:36:05;13.60;99.90
44190;DHT22;29856;52.144;5.430;2023-05-10T06:38:30;13.60;99.90
44190;DHT22;29856;52.144;5.430;2023-05-10T06:40:56;13.70;99.90
44190;DHT22;29856;52.144;5.430;2023-05-10T06:43:21;13.60;99.90
44190;DHT22;29856;52.144;5.430;2023-05-10T06:45:48;13.50;99.90
44190;DHT22;29856;52.144;5.430;2023-05-10T06:48:13;13.70;99.90
44190;DHT22;29856;52.144;5.430;2023-05-10T06:50:38;13.70;99.90
44190;DHT22;29856;52.144;5.430;2023-05-10T06:53:04;13.60;99.90
44190;DHT22;29856;52.144;5.430;2023-05-10T06:55:29;13.60;99.90
44190;DHT22;29856;52.144;5.430;2023-05-10T06:57:55;13.70;99.90
44190;DHT22;29856;52.144;5.430;2023-05-10T07:00:20;13.70;99.90
44190;DHT22;29856;52.144;5.430;2023-05-10T07:02:46;13.70;99.90
44190;DHT22;29856;52.144;5.430;2023-05-10T07:05:12;13.70;99.90
44190;DHT22;29856;52.144;5.430;2023-05-10T07:07:37;13.70;99.90
44190;DHT22;29856;52.144;5.430;2023-05-10T07:10:03;13.70;99.90
44190;DHT22;29856;52.144;5.430;2023-05-10T07:12:29;13.70;99.90
44190;DHT22;29856;52.144;5.430;2023-05-10T07:14:54;13.70;99.90
44190;DHT22;29856;52.144;5.430;2023-05-10T07:17:20;13.80;99.90
44190;DHT22;29856;52.144;5.430;2023-05-10T07:19:46;13.80;99.90
44190;DHT22;29856;52.144;5.430;2023-05-10T07:22:11;13.80;99.90
44190;DHT22;29856;52.144;5.430;2023-05-10T07:24:37;13.80;99.90
44190;DHT22;29856;52.144;5.430;2023-05-10T07:27:02;13.90;99.90
44190;DHT22;29856;52.144;5.430;2023-05-10T07:29:28;13.80;99.90
44190;DHT22;29856;52.144;5.430;2023-05-10T07:31:53;13.80;99.90
44190;DHT22;29856;52.144;5.430;2023-05-10T07:34:19;13.80;99.90
44190;DHT22;29856;52.144;5.430;2023-05-10T07:36:44;13.80;99.90
44190;DHT22;29856;52.144;5.430;2023-05-10T07:39:10;13.80;99.90
44190;DHT22;29856;52.144;5.430;2023-05-10T07:41:35;13.90;99.90
44190;DHT22;29856;52.144;5.430;2023-05-10T07:44:01;13.90;99.90
44190;DHT22;29856;52.144;5.430;2023-05-10T07:46:26;13.90;99.90
44190;DHT22;29856;52.144;5.430;2023-05-10T07:48:52;14.00;99.90
44190;DHT22;29856;52.144;5.430;2023-05-10T07:51:17;14.10;99.90
44190;DHT22;29856;52.144;5.430;2023-05-10T07:53:42;14.10;99.90
44190;DHT22;29856;52.144;5.430;2023-05-10T07:56:22;14.10;99.90
44190;DHT22;29856;52.144;5.430;2023-05-10T07:58:48;14.20;99.90
44190;DHT22;29856;52.144;5.430;2023-05-10T08:01:14;14.20;99.90
44190;DHT22;29856;52.144;5.430;2023-05-10T08:03:39;14.10;99.90
44190;DHT22;29856;52.144;5.430;2023-05-10T08:06:05;14.00;99.90
44190;DHT22;29856;52.144;5.430;2023-05-10T08:08:30;14.20;99.90
44190;DHT22;29856;52.144;5.430;2023-05-10T08:10:56;14.20;99.90
44190;DHT22;29856;52.144;5.430;2023-05-10T08:13:21;14.20;99.90
44190;DHT22;29856;52.144;5.430;2023-05-10T08:15:47;14.10;99.90
44190;DHT22;29856;52.144;5.430;2023-05-10T08:18:12;14.00;99.90
44190;DHT22;29856;52.144;5.430;2023-05-10T08:20:38;14.00;99.90
44190;DHT22;29856;52.144;5.430;2023-05-10T08:23:03;14.00;99.90
44190;DHT22;29856;52.144;5.430;2023-05-10T08:25:29;14.00;99.90
44190;DHT22;29856;52.144;5.430;2023-05-10T08:27:54;14.10;99.90
44190;DHT22;29856;52.144;5.430;2023-05-10T08:30:20;14.00;99.90
44190;DHT22;29856;52.144;5.430;2023-05-10T08:32:45;13.90;99.90
44190;DHT22;29856;52.144;5.430;2023-05-10T08:35:11;13.80;99.90
44190;DHT22;29856;52.144;5.430;2023-05-10T08:37:36;13.80;99.90
44190;DHT22;29856;52.144;5.430;2023-05-10T08:40:02;13.90;99.90
44190;DHT22;29856;52.144;5.430;2023-05-10T08:42:30;14.00;99.90
44190;DHT22;29856;52.144;5.430;2023-05-10T08:44:57;14.10;99.90
44190;DHT22;29856;52.144;5.430;2023-05-10T08:47:23;14.20;99.90
44190;DHT22;29856;52.144;5.430;2023-05-10T08:49:48;14.20;99.90
44190;DHT22;29856;52.144;5.430;2023-05-10T08:52:15;14.10;99.90
44190;DHT22;29856;52.144;5.430;2023-05-10T08:54:41;14.20;99.90
44190;DHT22;29856;52.144;5.430;2023-05-10T08:57:07;14.20;99.90
44190;DHT22;29856;52.144;5.430;2023-05-10T08:59:32;14.30;99.90
44190;DHT22;29856;52.144;5.430;2023-05-10T09:01:59;14.40;99.90
44190;DHT22;29856;52.144;5.430;2023-05-10T09:04:25;14.50;99.90
44190;DHT22;29856;52.144;5.430;2023-05-10T09:06:50;14.60;99.90
44190;DHT22;29856;52.144;5.430;2023-05-10T09:09:17;14.80;99.90
44190;DHT22;29856;52.144;5.430;2023-05-10T09:11:43;14.80;99.90
44190;DHT22;29856;52.144;5.430;2023-05-10T09:14:09;14.90;99.90
44190;DHT22;29856;52.144;5.430;2023-05-10T09:16:35;14.90;99.90
44190;DHT22;29856;52.144;5.430;2023-05-10T09:19:00;15.00;99.90
44190;DHT22;29856;52.144;5.430;2023-05-10T09:21:26;15.00;99.90
44190;DHT22;29856;52.144;5.430;2023-05-10T09:23:52;14.90;99.90
44190;DHT22;29856;52.144;5.430;2023-05-10T09:26:22;14.90;99.90
44190;DHT22;29856;52.144;5.430;2023-05-10T09:28:56;14.90;99.90
44190;DHT22;29856;52.144;5.430;2023-05-10T09:31:22;15.10;99.90
44190;DHT22;29856;52.144;5.430;2023-05-10T09:33:49;15.10;99.90
44190;DHT22;29856;52.144;5.430;2023-05-10T09:36:15;15.40;99.90
44190;DHT22;29856;52.144;5.430;2023-05-10T09:38:51;15.60;99.90
44190;DHT22;29856;52.144;5.430;2023-05-10T09:41:27;15.70;99.90
44190;DHT22;29856;52.144;5.430;2023-05-10T09:43:55;15.80;99.90
44190;DHT22;29856;52.144;5.430;2023-05-10T09:46:22;15.70;99.90
44190;DHT22;29856;52.144;5.430;2023-05-10T09:48:48;15.80;99.90
44190;DHT22;29856;52.144;5.430;2023-05-10T09:51:21;15.70;99.90
44190;DHT22;29856;52.144;5.430;2023-05-10T09:53:47;15.90;99.90
44190;DHT22;29856;52.144;5.430;2023-05-10T09:56:12;15.60;99.90
44190;DHT22;29856;52.144;5.430;2023-05-10T09:58:39;15.60;99.90
44190;DHT22;29856;52.144;5.430;2023-05-10T10:01:11;15.80;99.90
44190;DHT22;29856;52.144;5.430;2023-05-10T10:03:42;15.90;99.90
44190;DHT22;29856;52.144;5.430;2023-05-10T10:06:07;15.90;99.90
44190;DHT22;29856;52.144;5.430;2023-05-10T10:08:34;15.90;99.90
44190;DHT22;29856;52.144;5.430;2023-05-10T10:10:59;15.90;99.90
44190;DHT22;29856;52.144;5.430;2023-05-10T10:13:25;15.90;99.90
44190;DHT22;29856;52.144;5.430;2023-05-10T10:15:52;16.00;99.90
44190;DHT22;29856;52.144;5.430;2023-05-10T10:18:17;16.00;99.90
44190;DHT22;29856;52.144;5.430;2023-05-10T10:20:43;16.00;99.90
44190;DHT22;29856;52.144;5.430;2023-05-10T10:23:09;16.10;99.90
44190;DHT22;29856;52.144;5.430;2023-05-10T10:25:35;16.20;99.90
44190;DHT22;29856;52.144;5.430;2023-05-10T10:28:23;16.20;99.90
44190;DHT22;29856;52.144;5.430;2023-05-10T10:30:51;16.20;99.90
44190;DHT22;29856;52.144;5.430;2023-05-10T10:33:46;16.30;99.90
44190;DHT22;29856;52.144;5.430;2023-05-10T10:36:16;16.40;99.90
44190;DHT22;29856;52.144;5.430;2023-05-10T10:41:32;16.40;99.90
44190;DHT22;29856;52.144;5.430;2023-05-10T10:49:33;16.40;99.90
44190;DHT22;29856;52.144;5.430;2023-05-10T10:54:58;16.40;99.90
44190;DHT22;29856;52.144;5.430;2023-05-10T10:57:24;16.40;99.90
44190;DHT22;29856;52.144;5.430;2023-05-10T10:59:50;16.60;99.90
44190;DHT22;29856;52.144;5.430;2023-05-10T11:02:44;16.70;99.90
44190;DHT22;29856;52.144;5.430;2023-05-10T11:07:59;16.90;99.90
44190;DHT22;29856;52.144;5.430;2023-05-10T11:10:26;16.90;99.90
44190;DHT22;29856;52.144;5.430;2023-05-10T11:13:05;17.00;99.90
44190;DHT22;29856;52.144;5.430;2023-05-10T11:15:32;16.90;99.90
44190;DHT22;29856;52.144;5.430;2023-05-10T11:17:58;16.70;99.90
44190;DHT22;29856;52.144;5.430;2023-05-10T11:20:27;16.70;99.90
44190;DHT22;29856;52.144;5.430;2023-05-10T11:22:54;16.80;99.90
44190;DHT22;29856;52.144;5.430;2023-05-10T11:25:23;16.80;99.90
44190;DHT22;29856;52.144;5.430;2023-05-10T11:28:41;16.80;99.90
44190;DHT22;29856;52.144;5.430;2023-05-10T11:30:57;16.60;99.90
44190;DHT22;29856;52.144;5.430;2023-05-10T11:33:24;16.60;99.90
44190;DHT22;29856;52.144;5.430;2023-05-10T11:35:49;16.70;99.90
44190;DHT22;29856;52.144;5.430;2023-05-10T11:38:15;16.80;99.90
44190;DHT22;29856;52.144;5.430;2023-05-10T11:40:43;16.90;99.90
44190;DHT22;29856;52.144;5.430;2023-05-10T11:43:09;17.20;99.90
44190;DHT22;29856;52.144;5.430;2023-05-10T11:45:35;17.40;99.90
44190;DHT22;29856;52.144;5.430;2023-05-10T11:48:01;17.60;99.90
44190;DHT22;29856;52.144;5.430;2023-05-10T11:50:27;17.80;99.90
44190;DHT22;29856;52.144;5.430;2023-05-10T11:52:55;17.80;99.90
44190;DHT22;29856;52.144;5.430;2023-05-10T11:55:22;18.00;99.90
44190;DHT22;29856;52.144;5.430;2023-05-10T11:57:52;18.10;99.90
44190;DHT22;29856;52.144;5.430;2023-05-10T12:00:17;18.10;99.90
44190;DHT22;29856;52.144;5.430;2023-05-10T12:02:44;18.10;99.90
44190;DHT22;29856;52.144;5.430;2023-05-10T12:05:10;17.90;99.90
44190;DHT22;29856;52.144;5.430;2023-05-10T12:07:36;17.90;99.90
44190;DHT22;29856;52.144;5.430;2023-05-10T12:10:10;17.50;99.90
44190;DHT22;29856;52.144;5.430;2023-05-10T12:12:44;17.40;99.90
44190;DHT22;29856;52.144;5.430;2023-05-10T12:15:22;17.40;99.90
44190;DHT22;29856;52.144;5.430;2023-05-10T12:17:48;17.40;99.90
44190;DHT22;29856;52.144;5.430;2023-05-10T12:20:16;17.10;99.90
44190;DHT22;29856;52.144;5.430;2023-05-10T12:22:46;17.10;99.90
44190;DHT22;29856;52.144;5.430;2023-05-10T12:25:12;17.10;99.90
44190;DHT22;29856;52.144;5.430;2023-05-10T12:28:15;17.30;99.90
44190;DHT22;29856;52.144;5.430;2023-05-10T12:30:46;17.40;99.90
44190;DHT22;29856;52.144;5.430;2023-05-10T12:33:13;17.60;99.90
44190;DHT22;29856;52.144;5.430;2023-05-10T12:35:47;17.70;99.90
44190;DHT22;29856;52.144;5.430;2023-05-10T12:38:26;17.90;99.90
44190;DHT22;29856;52.144;5.430;2023-05-10T12:40:52;17.60;99.90
44190;DHT22;29856;52.144;5.430;2023-05-10T12:43:17;17.60;99.90
44190;DHT22;29856;52.144;5.430;2023-05-10T12:45:43;17.70;99.90
44190;DHT22;29856;52.144;5.430;2023-05-10T12:48:08;18.00;99.90
44190;DHT22;29856;52.144;5.430;2023-05-10T12:50:33;18.30;99.90
44190;DHT22;29856;52.144;5.430;2023-05-10T12:52:59;18.50;99.90
44190;DHT22;29856;52.144;5.430;2023-05-10T12:55:24;18.20;99.90
44190;DHT22;29856;52.144;5.430;2023-05-10T12:57:50;18.40;99.90
44190;DHT22;29856;52.144;5.430;2023-05-10T13:00:16;18.50;99.90
44190;DHT22;29856;52.144;5.430;2023-05-10T13:02:41;18.50;99.90
44190;DHT22;29856;52.144;5.430;2023-05-10T13:05:07;18.50;99.90
44190;DHT22;29856;52.144;5.430;2023-05-10T13:07:32;18.50;99.90
44190;DHT22;29856;52.144;5.430;2023-05-10T13:09:58;18.60;99.90
44190;DHT22;29856;52.144;5.430;2023-05-10T13:12:23;18.40;99.90
44190;DHT22;29856;52.144;5.430;2023-05-10T13:15:14;18.30;99.90
44190;DHT22;29856;52.144;5.430;2023-05-10T13:17:40;18.40;99.90
44190;DHT22;29856;52.144;5.430;2023-05-10T13:20:06;18.10;99.90
44190;DHT22;29856;52.144;5.430;2023-05-10T13:22:31;17.80;99.90
44190;DHT22;29856;52.144;5.430;2023-05-10T13:24:57;17.80;99.90
44190;DHT22;29856;52.144;5.430;2023-05-10T13:27:22;17.70;99.90
44190;DHT22;29856;52.144;5.430;2023-05-10T13:29:51;17.80;99.90
44190;DHT22;29856;52.144;5.430;2023-05-10T13:32:49;17.60;99.90
44190;DHT22;29856;52.144;5.430;2023-05-10T13:35:14;17.10;99.90
44190;DHT22;29856;52.144;5.430;2023-05-10T13:37:40;16.60;99.90
44190;DHT22;29856;52.144;5.430;2023-05-10T13:40:06;16.40;99.90
44190;DHT22;29856;52.144;5.430;2023-05-10T13:42:31;16.40;99.90
44190;DHT22;29856;52.144;5.430;2023-05-10T13:44:57;16.20;99.90
44190;DHT22;29856;52.144;5.430;2023-05-10T13:47:22;16.10;99.90
44190;DHT22;29856;52.144;5.430;2023-05-10T13:50:22;16.00;99.90
44190;DHT22;29856;52.144;5.430;2023-05-10T13:52:56;16.00;99.90
44190;DHT22;29856;52.144;5.430;2023-05-10T13:55:22;15.80;99.90
44190;DHT22;29856;52.144;5.430;2023-05-10T13:57:47;15.70;99.90
44190;DHT22;29856;52.144;5.430;2023-05-10T14:00:13;15.60;99.90
44190;DHT22;29856;52.144;5.430;2023-05-10T14:02:38;15.60;99.90
44190;DHT22;29856;52.144;5.430;2023-05-10T14:05:04;15.40;99.90
44190;DHT22;29856;52.144;5.430;2023-05-10T14:07:30;15.40;99.90
44190;DHT22;29856;52.144;5.430;2023-05-10T14:09:55;15.50;99.90
44190;DHT22;29856;52.144;5.430;2023-05-10T14:12:21;15.50;99.90
44190;DHT22;29856;52.144;5.430;2023-05-10T14:14:46;15.40;99.90
44190;DHT22;29856;52.144;5.430;2023-05-10T14:17:11;15.40;99.90
44190;DHT22;29856;52.144;5.430;2023-05-10T14:19:37;15.40;99.90
44190;DHT22;29856;52.144;5.430;2023-05-10T14:22:02;15.30;99.90
44190;DHT22;29856;52.144;5.430;2023-05-10T14:24:28;15.30;99.90
44190;DHT22;29856;52.144;5.430;2023-05-10T14:26:53;15.30;99.90
44190;DHT22;29856;52.144;5.430;2023-05-10T14:29:20;15.20;99.90
44190;DHT22;29856;52.144;5.430;2023-05-10T14:31:46;15.20;99.90
44190;DHT22;29856;52.144;5.430;2023-05-10T14:34:11;15.20;99.90
44190;DHT22;29856;52.144;5.430;2023-05-10T14:36:37;15.20;99.90
44190;DHT22;29856;52.144;5.430;2023-05-10T14:39:02;15.20;99.90
44190;DHT22;29856;52.144;5.430;2023-05-10T14:41:28;15.20;99.90
44190;DHT22;29856;52.144;5.430;2023-05-10T14:43:53;15.20;99.90
44190;DHT22;29856;52.144;5.430;2023-05-10T14:46:19;15.30;99.90
44190;DHT22;29856;52.144;5.430;2023-05-10T14:48:44;15.30;99.90
44190;DHT22;29856;52.144;5.430;2023-05-10T14:51:10;15.40;99.90
44190;DHT22;29856;52.144;5.430;2023-05-10T14:53:35;15.40;99.90
44190;DHT22;29856;52.144;5.430;2023-05-10T14:56:01;15.40;99.90
44190;DHT22;29856;52.144;5.430;2023-05-10T14:58:26;15.40;99.90
44190;DHT22;29856;52.144;5.430;2023-05-10T15:00:52;15.40;99.90
44190;DHT22;29856;52.144;5.430;2023-05-10T15:03:17;15.50;99.90
44190;DHT22;29856;52.144;5.430;2023-05-10T15:05:43;15.30;99.90
44190;DHT22;29856;52.144;5.430;2023-05-10T15:08:08;15.50;99.90
44190;DHT22;29856;52.144;5.430;2023-05-10T15:10:34;15.60;99.90
44190;DHT22;29856;52.144;5.430;2023-05-10T15:13:00;15.60;99.90
44190;DHT22;29856;52.144;5.430;2023-05-10T15:15:25;15.60;99.90
44190;DHT22;29856;52.144;5.430;2023-05-10T15:17:51;15.70;99.90
44190;DHT22;29856;52.144;5.430;2023-05-10T15:20:16;15.80;99.90
44190;DHT22;29856;52.144;5.430;2023-05-10T15:22:42;15.90;99.90
44190;DHT22;29856;52.144;5.430;2023-05-10T15:25:07;15.80;99.90
44190;DHT22;29856;52.144;5.430;2023-05-10T15:27:33;16.00;99.90
44190;DHT22;29856;52.144;5.430;2023-05-10T15:29:59;16.10;99.90
44190;DHT22;29856;52.144;5.430;2023-05-10T15:32:25;16.30;99.90
44190;DHT22;29856;52.144;5.430;2023-05-10T15:34:50;16.20;99.90
44190;DHT22;29856;52.144;5.430;2023-05-10T15:37:37;16.00;99.90
44190;DHT22;29856;52.144;5.430;2023-05-10T15:40:03;16.10;99.90
44190;DHT22;29856;52.144;5.430;2023-05-10T15:42:31;16.30;99.90
44190;DHT22;29856;52.144;5.430;2023-05-10T15:44:57;16.30;99.90
44190;DHT22;29856;52.144;5.430;2023-05-10T15:47:22;16.30;99.90
44190;DHT22;29856;52.144;5.430;2023-05-10T15:49:48;16.20;99.90
44190;DHT22;29856;52.144;5.430;2023-05-10T15:52:13;16.40;99.90
44190;DHT22;29856;52.144;5.430;2023-05-10T15:54:39;16.30;99.90
44190;DHT22;29856;52.144;5.430;2023-05-10T15:57:04;16.40;99.90
44190;DHT22;29856;52.144;5.430;2023-05-10T15:59:31;16.30;99.90
44190;DHT22;29856;52.144;5.430;2023-05-10T16:01:57;16.30;99.90